»·PEaware :: N201TC KBUR-KLAS

N201TC :: KBUR-KLAS

FLIGHT INFORMATION

Flight Status: Arrived
Operator: Privately registered:
United States
More flights under this callsign
Pilot: Timothy C. (29112)
Aircraft: CESSNA 172 SKYHAWK
(C172)
More flights by this aircraft type
Origin: KBUR Bob Hope-Burbank
United States
Destination: KLAS McCarran Intl
United States
More flights between these airports :: More routes between these airports
Route: VNY3 DAG CRESO4
File this flight plan on PilotEdge
Remarks:
Altitude:
(Current/Filed)
11,000ft
Speed:
(Current/Filed)
110kts
Departed: 15-Nov-20 09:24 AM
Arrived: 15-Nov-20 12:26 PM
Distance/Time
Traveled:
194nm/3:02
Distance/Time
To Go:
Arrived

Flight Plot

Page will automatically refresh every two minutes.

Flight plan parsing failed; only flown route is shown


Map Options




Map Legend


Flown Route
Filed Route
Departure Airport
Arrival Airport
Navaid (VOR, NDB)
Fix

Horizontal Profiles

Position Reports

Time Latitude Longitude Heading Altitude Ground
Speed
15-Nov-20 08:52 34.196426 -118.367894 180 779ft 0kts
15-Nov-20 08:53 34.196426 -118.367894 180 779ft 0kts
15-Nov-20 08:54 34.196426 -118.367894 180 779ft 0kts
15-Nov-20 08:55 34.196426 -118.367894 180 779ft 0kts
15-Nov-20 08:56 34.196426 -118.367894 180 779ft 0kts
15-Nov-20 08:57 34.196426 -118.367894 180 779ft 0kts
15-Nov-20 08:58 34.196426 -118.367894 180 779ft 0kts
15-Nov-20 08:59 34.196426 -118.367894 180 779ft 0kts
15-Nov-20 09:00 34.196426 -118.367894 180 779ft 0kts
15-Nov-20 09:01 34.196426 -118.367894 180 779ft 0kts
15-Nov-20 09:02 34.196426 -118.367894 180 779ft 0kts
15-Nov-20 09:03 34.196426 -118.367894 180 779ft 0kts
15-Nov-20 09:04 34.196426 -118.367894 180 779ft 0kts
15-Nov-20 09:05 34.196426 -118.367894 180 779ft 0kts
15-Nov-20 09:06 34.196426 -118.367894 180 779ft 0kts
15-Nov-20 09:07 34.196426 -118.367894 180 779ft 0kts
15-Nov-20 09:08 34.196426 -118.367894 180 779ft 0kts
15-Nov-20 09:09 34.196426 -118.367894 180 779ft 0kts
15-Nov-20 09:10 34.196426 -118.367894 180 779ft 0kts
15-Nov-20 09:11 34.196426 -118.367894 180 779ft 0kts
15-Nov-20 09:12 34.196426 -118.367894 180 779ft 0kts
15-Nov-20 09:13 34.196426 -118.367894 180 779ft 0kts
15-Nov-20 09:14 34.196426 -118.367894 180 779ft 0kts
15-Nov-20 09:15 34.196426 -118.367894 180 779ft 0kts
15-Nov-20 09:16 34.196418 -118.367894 177 779ft 1kts
15-Nov-20 09:17 34.197072 -118.368814 311 779ft 0kts
15-Nov-20 09:18 34.197072 -118.368814 311 779ft 0kts
15-Nov-20 09:19 34.197072 -118.368814 311 779ft 0kts
15-Nov-20 09:20 34.197072 -118.368814 311 779ft 0kts
15-Nov-20 09:21 34.197072 -118.368814 311 779ft 0kts
15-Nov-20 09:22 34.197919 -118.368136 89 779ft 17kts
15-Nov-20 09:23 34.198099 -118.342118 89 1380ft 90kts
15-Nov-20 09:24 34.180952 -118.340100 228 2157ft 95kts
15-Nov-20 09:25 34.162924 -118.365685 231 2829ft 101kts
15-Nov-20 09:26 34.146828 -118.392258 273 3522ft 96kts
15-Nov-20 09:27 34.166483 -118.405738 352 4212ft 87kts
15-Nov-20 09:28 34.189628 -118.409796 351 4908ft 82kts
15-Nov-20 09:29 34.211157 -118.415690 347 5604ft 77kts
15-Nov-20 09:30 34.231453 -118.421251 348 6259ft 77kts
15-Nov-20 09:31 34.253426 -118.426712 346 6875ft 83kts
15-Nov-20 09:32 34.276097 -118.432370 349 7478ft 83kts
15-Nov-20 09:33 34.298509 -118.438149 346 8078ft 82kts
15-Nov-20 09:34 34.319947 -118.443905 349 8730ft 73kts
15-Nov-20 09:35 34.338444 -118.448416 349 9361ft 66kts
15-Nov-20 09:36 34.357303 -118.452854 349 9875ft 72kts
15-Nov-20 09:37 34.377647 -118.457169 9 10382ft 77kts
15-Nov-20 09:38 34.393780 -118.437966 41 10890ft 83kts
15-Nov-20 09:39 34.410992 -118.412712 44 11012ft 112kts
15-Nov-20 09:40 34.431118 -118.380779 46 11005ft 121kts
15-Nov-20 09:41 34.451082 -118.348761 45 11001ft 117kts
15-Nov-20 09:42 34.471410 -118.317560 45 10999ft 118kts
15-Nov-20 09:43 34.491085 -118.285931 46 11061ft 113kts
15-Nov-20 09:44 34.510252 -118.255076 46 11064ft 119kts
15-Nov-20 09:45 34.530542 -118.222379 46 10991ft 117kts
15-Nov-20 09:46 34.550146 -118.190871 46 10996ft 115kts
15-Nov-20 09:47 34.569864 -118.160365 45 10992ft 114kts
15-Nov-20 09:48 34.589332 -118.129565 45 10989ft 115kts
15-Nov-20 09:49 34.608610 -118.098650 45 10985ft 115kts
15-Nov-20 09:50 34.627626 -118.067271 59 10978ft 118kts
15-Nov-20 09:51 34.634025 -118.027089 74 10989ft 121kts
15-Nov-20 09:52 34.638727 -117.986319 75 10999ft 122kts
15-Nov-20 09:53 34.643205 -117.945345 75 10996ft 122kts
15-Nov-20 09:54 34.647656 -117.904041 75 10993ft 122kts
15-Nov-20 09:55 34.652071 -117.862849 75 10990ft 122kts
15-Nov-20 09:56 34.656501 -117.821412 75 10987ft 122kts
15-Nov-20 09:57 34.660727 -117.780055 75 10984ft 122kts
15-Nov-20 09:58 34.668332 -117.740332 65 10981ft 119kts
15-Nov-20 09:59 34.677941 -117.701867 65 10978ft 118kts
15-Nov-20 10:00 34.687586 -117.663846 65 11003ft 117kts
15-Nov-20 10:01 34.698552 -117.620698 65 10999ft 117kts
15-Nov-20 10:02 34.717815 -117.544978 65 10989ft 116kts
15-Nov-20 10:03 34.735017 -117.477261 65 10980ft 116kts
15-Nov-20 10:04 34.735017 -117.477261 65 10980ft 116kts
15-Nov-20 10:05 34.735017 -117.477261 65 10980ft 116kts
15-Nov-20 10:06 34.735017 -117.477261 65 10980ft 116kts
15-Nov-20 10:07 34.735017 -117.477261 65 10980ft 116kts
15-Nov-20 10:08 34.735017 -117.477261 65 10980ft 116kts
15-Nov-20 10:09 34.735017 -117.477261 65 10980ft 116kts
15-Nov-20 10:14 34.196457 -118.367894 180 779ft 0kts
15-Nov-20 10:16 34.196457 -118.367894 180 779ft 0kts
15-Nov-20 10:17 34.196457 -118.367894 180 779ft 0kts
15-Nov-20 10:18 34.196422 -118.367895 180 779ft 0kts
15-Nov-20 10:19 34.196422 -118.367895 180 779ft 0kts
15-Nov-20 10:20 34.196422 -118.367895 180 779ft 0kts
15-Nov-20 10:21 34.196422 -118.367895 180 779ft 0kts
15-Nov-20 10:22 34.196422 -118.367895 180 779ft 0kts
15-Nov-20 10:23 34.196422 -118.367895 180 779ft 0kts
15-Nov-20 10:24 34.196422 -118.367895 180 779ft 0kts
15-Nov-20 10:25 34.196422 -118.367895 180 779ft 0kts
15-Nov-20 10:26 34.196422 -118.367895 180 779ft 0kts
15-Nov-20 10:27 34.196422 -118.367895 180 779ft 0kts
15-Nov-20 10:28 34.196422 -118.367895 180 779ft 0kts
15-Nov-20 10:29 34.196422 -118.367895 180 779ft 0kts
15-Nov-20 10:29 34.196422 -118.367895 180 779ft 0kts
15-Nov-20 10:31 34.196422 -118.367895 180 779ft 0kts
15-Nov-20 10:32 34.196406 -118.367559 75 779ft 7kts
15-Nov-20 10:32 34.197059 -118.368860 323 779ft 0kts
15-Nov-20 10:34 34.197059 -118.368860 323 779ft 0kts
15-Nov-20 10:34 34.197059 -118.368860 323 779ft 0kts
15-Nov-20 10:36 34.197921 -118.368563 85 779ft 0kts
15-Nov-20 10:36 34.197859 -118.355014 85 950ft 91kts
15-Nov-20 10:37 34.190548 -118.329188 169 1777ft 92kts
15-Nov-20 10:38 34.171109 -118.347944 228 2532ft 92kts
15-Nov-20 10:39 34.154364 -118.369032 227 3299ft 86kts
15-Nov-20 10:40 34.157291 -118.388264 343 4074ft 68kts
15-Nov-20 10:41 34.176662 -118.394434 345 4687ft 75kts
15-Nov-20 10:42 34.197376 -118.400826 344 5292ft 77kts
15-Nov-20 10:43 34.218013 -118.407820 343 5883ft 76kts
15-Nov-20 10:44 34.238434 -118.413589 347 6487ft 76kts
15-Nov-20 10:45 34.259042 -118.419788 345 7090ft 76kts
15-Nov-20 10:46 34.279148 -118.426379 347 7708ft 71kts
15-Nov-20 10:47 34.295584 -118.431679 347 8252ft 57kts
15-Nov-20 10:48 34.313581 -118.436963 349 8602ft 76kts
15-Nov-20 10:49 34.334775 -118.443101 346 9117ft 75kts
15-Nov-20 10:50 34.354053 -118.449820 345 9651ft 72kts
15-Nov-20 10:51 34.373120 -118.456341 343 10151ft 70kts
15-Nov-20 10:52 34.389478 -118.445701 41 10635ft 71kts
15-Nov-20 10:53 34.403289 -118.424844 47 10936ft 90kts
15-Nov-20 10:54 34.421021 -118.396838 48 10963ft 112kts
15-Nov-20 10:55 34.440480 -118.366004 45 10962ft 116kts
15-Nov-20 10:56 34.460583 -118.334733 46 10962ft 118kts
15-Nov-20 10:57 34.480611 -118.303006 46 10961ft 118kts
15-Nov-20 10:58 34.500617 -118.271186 46 10959ft 119kts
15-Nov-20 10:59 34.520679 -118.239217 46 10959ft 118kts
15-Nov-20 11:00 34.540305 -118.207942 46 10993ft 118kts
15-Nov-20 11:01 34.560286 -118.176002 46 10991ft 118kts
15-Nov-20 11:02 34.580154 -118.144229 46 10989ft 118kts
15-Nov-20 11:03 34.600088 -118.112328 46 10986ft 118kts
15-Nov-20 11:04 34.619826 -118.080715 46 10983ft 117kts
15-Nov-20 11:05 34.632059 -118.043532 74 10978ft 123kts
15-Nov-20 11:06 34.637187 -118.002140 75 10975ft 124kts
15-Nov-20 11:07 34.641860 -117.960799 75 10972ft 123kts
15-Nov-20 11:08 34.646425 -117.919530 75 10995ft 123kts
15-Nov-20 11:09 34.651149 -117.876429 75 10992ft 123kts
15-Nov-20 11:10 34.655778 -117.834064 75 11024ft 121kts
15-Nov-20 11:11 34.660280 -117.792698 75 11023ft 122kts
15-Nov-20 11:12 34.666721 -117.752000 66 11019ft 120kts
15-Nov-20 11:13 34.676432 -117.713389 66 11016ft 119kts
15-Nov-20 11:14 34.686337 -117.674773 65 11010ft 120kts
15-Nov-20 11:15 34.696393 -117.635580 66 11009ft 121kts
15-Nov-20 11:16 34.706456 -117.596342 66 11007ft 122kts
15-Nov-20 11:17 34.716545 -117.556961 66 11004ft 122kts
15-Nov-20 11:18 34.735827 -117.481504 66 10999ft 122kts
15-Nov-20 11:19 34.755860 -117.402813 66 10993ft 122kts
15-Nov-20 11:20 34.775863 -117.324005 66 10984ft 122kts
15-Nov-20 11:21 34.795904 -117.244805 66 10968ft 122kts
15-Nov-20 11:22 34.815967 -117.165270 66 10951ft 123kts
15-Nov-20 11:23 34.836040 -117.085493 67 10936ft 123kts
15-Nov-20 11:24 34.855830 -117.006530 68 10998ft 118kts
15-Nov-20 11:25 34.875184 -116.929151 70 10988ft 119kts
15-Nov-20 11:26 34.894073 -116.851374 70 10979ft 120kts
15-Nov-20 11:27 34.913514 -116.772984 69 10969ft 121kts
15-Nov-20 11:28 34.933382 -116.692787 69 10960ft 123kts
15-Nov-20 11:29 34.953415 -116.611657 69 10955ft 126kts
15-Nov-20 11:30 34.973043 -116.551924 57 10953ft 127kts
15-Nov-20 11:31 34.992343 -116.509114 58 10957ft 130kts
15-Nov-20 11:32 35.011958 -116.465122 59 10966ft 132kts
15-Nov-20 11:33 35.029849 -116.424875 60 10977ft 134kts
15-Nov-20 11:34 35.047691 -116.384654 61 10991ft 134kts
15-Nov-20 11:35 35.069814 -116.334711 62 11005ft 135kts
15-Nov-20 11:36 35.087641 -116.294440 62 11007ft 135kts
15-Nov-20 11:37 35.105491 -116.254070 62 11007ft 135kts
15-Nov-20 11:38 35.123275 -116.213799 62 11000ft 135kts
15-Nov-20 11:39 35.141075 -116.173449 62 10993ft 135kts
15-Nov-20 11:40 35.158881 -116.133035 62 10987ft 135kts
15-Nov-20 11:41 35.176636 -116.092691 62 10982ft 135kts
15-Nov-20 11:42 35.194413 -116.052244 62 10978ft 135kts
15-Nov-20 11:43 35.212164 -116.011806 62 10974ft 135kts
15-Nov-20 11:44 35.232117 -115.966298 62 10971ft 135kts
15-Nov-20 11:45 35.257844 -115.907495 62 10968ft 135kts
15-Nov-20 11:46 35.284543 -115.846369 62 10967ft 135kts
15-Nov-20 11:47 35.314990 -115.781452 48 10968ft 135kts
15-Nov-20 11:48 35.340067 -115.747295 46 10969ft 135kts
15-Nov-20 11:49 35.365217 -115.713119 46 10971ft 135kts
15-Nov-20 11:50 35.390668 -115.678952 46 10791ft 137kts
15-Nov-20 11:51 35.416643 -115.644247 45 10297ft 138kts
15-Nov-20 11:52 35.442067 -115.610319 44 10042ft 125kts
15-Nov-20 11:53 35.464920 -115.580346 43 10035ft 117kts
15-Nov-20 11:54 35.487781 -115.549964 45 10054ft 131kts
15-Nov-20 11:55 35.513116 -115.515522 45 10066ft 136kts
15-Nov-20 11:56 35.538270 -115.481676 45 10070ft 133kts
15-Nov-20 11:57 35.563126 -115.448333 45 10076ft 132kts
15-Nov-20 11:58 35.588089 -115.414841 45 10084ft 132kts
15-Nov-20 11:59 35.613155 -115.381161 45 10047ft 134kts
15-Nov-20 12:00 35.638286 -115.347723 45 10053ft 132kts
15-Nov-20 12:01 35.663247 -115.314329 45 10050ft 132kts
15-Nov-20 12:02 35.688111 -115.280800 46 9992ft 137kts
15-Nov-20 12:03 35.714247 -115.245407 45 9299ft 136kts
15-Nov-20 12:04 35.739486 -115.211304 45 8596ft 133kts
15-Nov-20 12:05 35.763427 -115.178948 45 8089ft 125kts
15-Nov-20 12:06 35.789928 -115.154249 15 7892ft 125kts
15-Nov-20 12:07 35.823713 -115.141528 14 7381ft 127kts
15-Nov-20 12:08 35.857703 -115.131065 11 7102ft 121kts
15-Nov-20 12:09 35.890059 -115.121310 11 7085ft 113kts
15-Nov-20 12:10 35.920370 -115.112208 11 7075ft 111kts
15-Nov-20 12:11 35.950388 -115.103270 11 7069ft 110kts
15-Nov-20 12:13 35.980179 -115.094532 10 7072ft 110kts
15-Nov-20 12:14 36.009980 -115.084980 13 7067ft 111kts
15-Nov-20 12:15 36.042921 -115.073318 14 6539ft 116kts
15-Nov-20 12:16 36.074822 -115.062216 13 6016ft 115kts
15-Nov-20 12:17 36.105394 -115.046947 23 5496ft 115kts
15-Nov-20 12:18 36.136070 -115.028578 24 4995ft 112kts
15-Nov-20 12:19 36.165379 -115.015424 334 4932ft 100kts
15-Nov-20 12:20 36.180129 -115.050227 295 4443ft 107kts
15-Nov-20 12:21 36.191808 -115.084328 294 4288ft 94kts
15-Nov-20 12:22 36.178026 -115.110005 215 4131ft 111kts
15-Nov-20 12:23 36.150167 -115.128197 209 3557ft 104kts
15-Nov-20 12:24 36.124398 -115.143126 204 2816ft 99kts
15-Nov-20 12:25 36.102895 -115.154728 207 2340ft 76kts
15-Nov-20 12:26 36.089264 -115.163250 303 2185ft 24kts
15-Nov-20 12:27 36.089456 -115.163621 306 2185ft 0kts
15-Nov-20 12:27 36.089490 -115.163689 297 2185ft 2kts
15-Nov-20 12:29 36.091788 -115.163416 30 2185ft 23kts
15-Nov-20 12:29 36.097501 -115.160128 14 2185ft 28kts

Navigation Log

Ident Type
Flight plan parsing failed, navigation log unavailable